Glasgow International Airport – EGPF

METAR:

EGPF 190750Z AUTO 21014KT 9999 BKN016 12/09 Q1014


TAF:

TAF EGPF 190457Z 1906/2006 22010KT 9999 FEW035 PROB40 TEMPO 1906/1908 BKN014 PROB30 TEMPO 1909/1916 22015G25KT